sensor_id;sensor_type;location;lat;lon;timestamp;pressure;altitude;pressure_sealevel;temperature;humidity
28456;BME280;15682;56.742;38.866;2023-05-08T00:00:19;100970.0;;;0.1;90.4
28456;BME280;15682;56.742;38.866;2023-05-08T00:02:19;100970.0;;;0.1;89.6
28456;BME280;15682;56.742;38.866;2023-05-08T00:04:19;100970.0;;;-0.0;89.6
28456;BME280;15682;56.742;38.866;2023-05-08T00:06:19;100970.0;;;-0.1;89.6
28456;BME280;15682;56.742;38.866;2023-05-08T00:08:19;100970.0;;;-0.1;90.3
28456;BME280;15682;56.742;38.866;2023-05-08T00:10:18;100970.0;;;-0.1;90.3
28456;BME280;15682;56.742;38.866;2023-05-08T00:12:18;100970.0;;;0.0;90.7
28456;BME280;15682;56.742;38.866;2023-05-08T00:14:18;100970.0;;;0.0;90.7
28456;BME280;15682;56.742;38.866;2023-05-08T00:16:18;100970.0;;;0.0;89.9
28456;BME280;15682;56.742;38.866;2023-05-08T00:18:18;100970.0;;;0.0;89.9
28456;BME280;15682;56.742;38.866;2023-05-08T00:20:18;100970.0;;;-0.1;89.9
28456;BME280;15682;56.742;38.866;2023-05-08T00:22:18;100970.0;;;-0.1;89.9
28456;BME280;15682;56.742;38.866;2023-05-08T00:24:18;100980.0;;;0.0;89.9
28456;BME280;15682;56.742;38.866;2023-05-08T00:26:18;100980.0;;;-0.1;89.9
28456;BME280;15682;56.742;38.866;2023-05-08T00:28:18;100980.0;;;-0.2;89.5
28456;BME280;15682;56.742;38.866;2023-05-08T00:30:18;100980.0;;;-0.2;89.5
28456;BME280;15682;56.742;38.866;2023-05-08T00:32:17;100980.0;;;-0.1;89.5
28456;BME280;15682;56.742;38.866;2023-05-08T00:34:18;100980.0;;;-0.1;89.5
28456;BME280;15682;56.742;38.866;2023-05-08T00:36:17;100980.0;;;-0.2;90.5
28456;BME280;15682;56.742;38.866;2023-05-08T00:38:17;100980.0;;;-0.2;89.8
28456;BME280;15682;56.742;38.866;2023-05-08T00:40:17;100980.0;;;-0.2;90.8
28456;BME280;15682;56.742;38.866;2023-05-08T00:42:17;100980.0;;;-0.2;90.8
28456;BME280;15682;56.742;38.866;2023-05-08T00:44:17;100980.0;;;-0.2;90.0
28456;BME280;15682;56.742;38.866;2023-05-08T00:46:17;100980.0;;;-0.1;90.5
28456;BME280;15682;56.742;38.866;2023-05-08T00:48:17;100980.0;;;-0.1;90.9
28456;BME280;15682;56.742;38.866;2023-05-08T00:50:17;100980.0;;;-0.1;89.4
28456;BME280;15682;56.742;38.866;2023-05-08T00:52:17;100980.0;;;-0.1;89.4
28456;BME280;15682;56.742;38.866;2023-05-08T00:54:17;100980.0;;;-0.1;89.4
28456;BME280;15682;56.742;38.866;2023-05-08T00:56:19;100980.0;;;-0.2;90.1
28456;BME280;15682;56.742;38.866;2023-05-08T00:58:17;100980.0;;;-0.2;90.3
28456;BME280;15682;56.742;38.866;2023-05-08T01:00:17;100980.0;;;-0.2;90.3
28456;BME280;15682;56.742;38.866;2023-05-08T01:02:16;100990.0;;;-0.1;91.2
28456;BME280;15682;56.742;38.866;2023-05-08T01:04:20;100990.0;;;-0.1;89.8
28456;BME280;15682;56.742;38.866;2023-05-08T01:06:16;101000.0;;;-0.3;89.8
28456;BME280;15682;56.742;38.866;2023-05-08T01:08:16;101000.0;;;-0.3;90.7
28456;BME280;15682;56.742;38.866;2023-05-08T01:10:16;101000.0;;;-0.3;90.7
28456;BME280;15682;56.742;38.866;2023-05-08T01:12:25;101000.0;;;-0.4;89.9
28456;BME280;15682;56.742;38.866;2023-05-08T01:14:19;101000.0;;;-0.4;89.9
28456;BME280;15682;56.742;38.866;2023-05-08T01:16:21;101000.0;;;-0.5;89.9
28456;BME280;15682;56.742;38.866;2023-05-08T01:18:18;101000.0;;;-0.5;90.4
28456;BME280;15682;56.742;38.866;2023-05-08T01:20:31;101000.0;;;-0.5;89.8
28456;BME280;15682;56.742;38.866;2023-05-08T01:22:23;101000.0;;;-0.5;89.8
28456;BME280;15682;56.742;38.866;2023-05-08T01:24:31;101000.0;;;-0.5;89.8
28456;BME280;15682;56.742;38.866;2023-05-08T01:26:35;101000.0;;;-0.4;90.6
28456;BME280;15682;56.742;38.866;2023-05-08T01:28:40;101000.0;;;-0.4;89.7
28456;BME280;15682;56.742;38.866;2023-05-08T01:32:18;101000.0;;;-0.4;89.8
28456;BME280;15682;56.742;38.866;2023-05-08T01:34:20;101010.0;;;-0.4;89.8
28456;BME280;15682;56.742;38.866;2023-05-08T01:36:22;101010.0;;;-0.5;90.5
28456;BME280;15682;56.742;38.866;2023-05-08T01:38:20;101010.0;;;-0.5;90.7
28456;BME280;15682;56.742;38.866;2023-05-08T01:40:24;101010.0;;;-0.5;90.7
28456;BME280;15682;56.742;38.866;2023-05-08T01:42:21;101010.0;;;-0.3;90.7
28456;BME280;15682;56.742;38.866;2023-05-08T01:44:16;101010.0;;;-0.3;90.7
28456;BME280;15682;56.742;38.866;2023-05-08T01:46:19;101010.0;;;-0.4;90.7
28456;BME280;15682;56.742;38.866;2023-05-08T01:48:18;101010.0;;;-0.4;90.3
28456;BME280;15682;56.742;38.866;2023-05-08T01:50:20;101010.0;;;-0.4;90.3
28456;BME280;15682;56.742;38.866;2023-05-08T01:52:20;101010.0;;;-0.4;90.3
28456;BME280;15682;56.742;38.866;2023-05-08T01:54:18;101010.0;;;-0.4;90.0
28456;BME280;15682;56.742;38.866;2023-05-08T01:56:18;101010.0;;;-0.4;89.5
28456;BME280;15682;56.742;38.866;2023-05-08T01:58:14;101010.0;;;-0.4;89.4
28456;BME280;15682;56.742;38.866;2023-05-08T02:00:17;101010.0;;;-0.4;89.4
28456;BME280;15682;56.742;38.866;2023-05-08T02:02:14;101020.0;;;-0.5;90.0
28456;BME280;15682;56.742;38.866;2023-05-08T02:04:14;101020.0;;;-0.3;90.0
28456;BME280;15682;56.742;38.866;2023-05-08T02:06:17;101020.0;;;-0.2;89.9
28456;BME280;15682;56.742;38.866;2023-05-08T02:08:14;101030.0;;;-0.2;89.9
28456;BME280;15682;56.742;38.866;2023-05-08T02:10:14;101030.0;;;-0.2;89.9
28456;BME280;15682;56.742;38.866;2023-05-08T02:12:15;101030.0;;;-0.2;89.9
28456;BME280;15682;56.742;38.866;2023-05-08T02:14:13;101030.0;;;-0.2;90.2
28456;BME280;15682;56.742;38.866;2023-05-08T02:16:13;101030.0;;;-0.0;91.0
28456;BME280;15682;56.742;38.866;2023-05-08T02:18:14;101030.0;;;-0.0;88.9
28456;BME280;15682;56.742;38.866;2023-05-08T02:20:13;101030.0;;;-0.1;88.9
28456;BME280;15682;56.742;38.866;2023-05-08T02:22:13;101030.0;;;-0.1;88.9
28456;BME280;15682;56.742;38.866;2023-05-08T02:24:14;101030.0;;;-0.1;88.9
28456;BME280;15682;56.742;38.866;2023-05-08T02:26:14;101030.0;;;-0.1;88.9
28456;BME280;15682;56.742;38.866;2023-05-08T02:28:13;101030.0;;;0.0;89.5
28456;BME280;15682;56.742;38.866;2023-05-08T02:30:14;101030.0;;;-0.0;88.4
28456;BME280;15682;56.742;38.866;2023-05-08T02:32:14;101040.0;;;0.2;89.8
28456;BME280;15682;56.742;38.866;2023-05-08T02:34:12;101040.0;;;0.2;88.4
28456;BME280;15682;56.742;38.866;2023-05-08T02:36:15;101040.0;;;0.2;88.4
28456;BME280;15682;56.742;38.866;2023-05-08T02:38:13;101040.0;;;0.2;88.7
28456;BME280;15682;56.742;38.866;2023-05-08T02:40:13;101040.0;;;0.2;89.0
28456;BME280;15682;56.742;38.866;2023-05-08T02:42:12;101040.0;;;0.4;86.8
28456;BME280;15682;56.742;38.866;2023-05-08T02:44:12;101050.0;;;0.4;86.2
28456;BME280;15682;56.742;38.866;2023-05-08T02:46:15;101050.0;;;0.5;85.6
28456;BME280;15682;56.742;38.866;2023-05-08T02:48:19;101050.0;;;0.5;85.6
28456;BME280;15682;56.742;38.866;2023-05-08T02:50:16;101050.0;;;0.5;86.5
28456;BME280;15682;56.742;38.866;2023-05-08T02:52:16;101050.0;;;0.5;84.4
28456;BME280;15682;56.742;38.866;2023-05-08T02:54:17;101050.0;;;0.6;84.4
28456;BME280;15682;56.742;38.866;2023-05-08T02:56:24;101060.0;;;0.6;84.4
28456;BME280;15682;56.742;38.866;2023-05-08T02:58:17;101060.0;;;0.6;85.0
28456;BME280;15682;56.742;38.866;2023-05-08T03:00:15;101060.0;;;0.7;84.3
28456;BME280;15682;56.742;38.866;2023-05-08T03:02:15;101060.0;;;0.8;83.2
28456;BME280;15682;56.742;38.866;2023-05-08T03:04:19;101070.0;;;0.8;83.2
28456;BME280;15682;56.742;38.866;2023-05-08T03:06:13;101070.0;;;1.0;82.4
28456;BME280;15682;56.742;38.866;2023-05-08T03:08:15;101070.0;;;1.0;82.4
28456;BME280;15682;56.742;38.866;2023-05-08T03:10:13;101080.0;;;1.0;82.4
28456;BME280;15682;56.742;38.866;2023-05-08T03:12:14;101080.0;;;1.1;81.4
28456;BME280;15682;56.742;38.866;2023-05-08T03:14:13;101080.0;;;1.1;81.4
28456;BME280;15682;56.742;38.866;2023-05-08T03:16:15;101080.0;;;1.3;81.4
28456;BME280;15682;56.742;38.866;2023-05-08T03:18:15;101080.0;;;1.4;81.4
28456;BME280;15682;56.742;38.866;2023-05-08T03:20:14;101080.0;;;1.4;81.4
28456;BME280;15682;56.742;38.866;2023-05-08T03:22:12;101080.0;;;1.4;81.4
28456;BME280;15682;56.742;38.866;2023-05-08T03:24:14;101080.0;;;1.6;81.4
28456;BME280;15682;56.742;38.866;2023-05-08T03:26:12;101080.0;;;1.7;80.8
28456;BME280;15682;56.742;38.866;2023-05-08T03:28:12;101080.0;;;1.9;80.8
28456;BME280;15682;56.742;38.866;2023-05-08T03:30:12;101080.0;;;2.0;81.5
28456;BME280;15682;56.742;38.866;2023-05-08T03:32:12;101080.0;;;2.1;81.5
28456;BME280;15682;56.742;38.866;2023-05-08T03:34:12;101080.0;;;2.5;82.2
28456;BME280;15682;56.742;38.866;2023-05-08T03:36:12;101080.0;;;2.8;81.3
28456;BME280;15682;56.742;38.866;2023-05-08T03:38:12;101080.0;;;2.8;80.5
28456;BME280;15682;56.742;38.866;2023-05-08T03:40:12;101080.0;;;3.0;79.9
28456;BME280;15682;56.742;38.866;2023-05-08T03:42:12;101080.0;;;3.1;79.2
28456;BME280;15682;56.742;38.866;2023-05-08T03:44:12;101080.0;;;3.1;79.2
28456;BME280;15682;56.742;38.866;2023-05-08T03:46:12;101080.0;;;3.1;78.8
28456;BME280;15682;56.742;38.866;2023-05-08T03:48:12;101090.0;;;3.1;78.8
28456;BME280;15682;56.742;38.866;2023-05-08T03:50:12;101090.0;;;3.1;78.8
28456;BME280;15682;56.742;38.866;2023-05-08T03:52:13;101090.0;;;3.1;78.5
28456;BME280;15682;56.742;38.866;2023-05-08T03:54:12;101090.0;;;3.3;78.5
28456;BME280;15682;56.742;38.866;2023-05-08T03:56:13;101100.0;;;3.3;78.3
28456;BME280;15682;56.742;38.866;2023-05-08T03:58:18;101100.0;;;3.4;77.9
28456;BME280;15682;56.742;38.866;2023-05-08T04:00:18;101100.0;;;3.4;77.2
28456;BME280;15682;56.742;38.866;2023-05-08T04:02:19;101100.0;;;3.5;77.2
28456;BME280;15682;56.742;38.866;2023-05-08T04:04:17;101100.0;;;3.5;77.2
28456;BME280;15682;56.742;38.866;2023-05-08T04:06:20;101100.0;;;3.5;77.4
28456;BME280;15682;56.742;38.866;2023-05-08T04:08:18;101100.0;;;3.5;77.7
28456;BME280;15682;56.742;38.866;2023-05-08T04:10:31;101100.0;;;3.6;76.8
28456;BME280;15682;56.742;38.866;2023-05-08T04:12:17;101100.0;;;3.6;76.8
28456;BME280;15682;56.742;38.866;2023-05-08T04:14:18;101100.0;;;3.6;76.0
28456;BME280;15682;56.742;38.866;2023-05-08T04:16:19;101100.0;;;3.6;75.3
28456;BME280;15682;56.742;38.866;2023-05-08T04:18:17;101100.0;;;3.6;75.3
28456;BME280;15682;56.742;38.866;2023-05-08T04:20:19;101100.0;;;3.8;75.3
28456;BME280;15682;56.742;38.866;2023-05-08T04:22:19;101100.0;;;3.9;74.6
28456;BME280;15682;56.742;38.866;2023-05-08T04:24:16;101100.0;;;3.9;74.6
28456;BME280;15682;56.742;38.866;2023-05-08T04:26:17;101100.0;;;4.1;74.9
28456;BME280;15682;56.742;38.866;2023-05-08T04:28:17;101100.0;;;4.1;74.0
28456;BME280;15682;56.742;38.866;2023-05-08T04:30:18;101100.0;;;4.0;74.6
28456;BME280;15682;56.742;38.866;2023-05-08T04:32:18;101100.0;;;4.0;73.8
28456;BME280;15682;56.742;38.866;2023-05-08T04:34:18;101100.0;;;4.2;73.8
28456;BME280;15682;56.742;38.866;2023-05-08T04:36:18;101100.0;;;4.2;73.8
28456;BME280;15682;56.742;38.866;2023-05-08T04:38:19;101100.0;;;4.3;73.0
28456;BME280;15682;56.742;38.866;2023-05-08T04:40:20;101100.0;;;4.3;73.0
28456;BME280;15682;56.742;38.866;2023-05-08T04:42:20;101100.0;;;4.4;72.5
28456;BME280;15682;56.742;38.866;2023-05-08T04:44:20;101100.0;;;4.4;71.8
28456;BME280;15682;56.742;38.866;2023-05-08T04:46:21;101100.0;;;4.4;72.5
28456;BME280;15682;56.742;38.866;2023-05-08T04:48:22;101100.0;;;4.6;72.5
28456;BME280;15682;56.742;38.866;2023-05-08T04:50:22;101100.0;;;4.7;72.5
28456;BME280;15682;56.742;38.866;2023-05-08T04:52:22;101100.0;;;4.7;71.3
28456;BME280;15682;56.742;38.866;2023-05-08T04:54:22;101100.0;;;4.7;71.3
28456;BME280;15682;56.742;38.866;2023-05-08T04:56:23;101100.0;;;4.7;71.9
28456;BME280;15682;56.742;38.866;2023-05-08T04:58:23;101100.0;;;4.7;71.9
28456;BME280;15682;56.742;38.866;2023-05-08T05:00:24;101100.0;;;4.7;71.9
28456;BME280;15682;56.742;38.866;2023-05-08T05:02:25;101100.0;;;4.8;71.9
28456;BME280;15682;56.742;38.866;2023-05-08T05:04:25;101100.0;;;5.0;70.4
28456;BME280;15682;56.742;38.866;2023-05-08T05:06:25;101100.0;;;5.1;70.4
28456;BME280;15682;56.742;38.866;2023-05-08T05:08:26;101100.0;;;5.3;69.8
28456;BME280;15682;56.742;38.866;2023-05-08T05:10:26;101100.0;;;5.3;69.8
28456;BME280;15682;56.742;38.866;2023-05-08T05:12:27;101110.0;;;5.3;69.8
28456;BME280;15682;56.742;38.866;2023-05-08T05:14:27;101110.0;;;5.4;69.2
28456;BME280;15682;56.742;38.866;2023-05-08T05:16:28;101110.0;;;5.4;68.4
28456;BME280;15682;56.742;38.866;2023-05-08T05:18:28;101110.0;;;5.5;67.6
28456;BME280;15682;56.742;38.866;2023-05-08T05:20:29;101110.0;;;5.5;68.6
28456;BME280;15682;56.742;38.866;2023-05-08T05:22:31;101110.0;;;5.5;68.6
28456;BME280;15682;56.742;38.866;2023-05-08T05:24:30;101110.0;;;5.5;67.9
28456;BME280;15682;56.742;38.866;2023-05-08T05:26:31;101120.0;;;5.8;66.9
28456;BME280;15682;56.742;38.866;2023-05-08T05:28:31;101120.0;;;5.8;66.1
28456;BME280;15682;56.742;38.866;2023-05-08T05:30:31;101120.0;;;5.8;66.1
28456;BME280;15682;56.742;38.866;2023-05-08T05:32:32;101120.0;;;5.9;66.1
28456;BME280;15682;56.742;38.866;2023-05-08T05:34:32;101120.0;;;5.9;66.1
28456;BME280;15682;56.742;38.866;2023-05-08T05:36:33;101120.0;;;6.1;64.8
28456;BME280;15682;56.742;38.866;2023-05-08T05:38:33;101120.0;;;6.3;64.8
28456;BME280;15682;56.742;38.866;2023-05-08T05:40:34;101120.0;;;6.4;63.9
28456;BME280;15682;56.742;38.866;2023-05-08T05:42:34;101120.0;;;6.4;63.9
28456;BME280;15682;56.742;38.866;2023-05-08T05:44:36;101120.0;;;6.4;63.1
28456;BME280;15682;56.742;38.866;2023-05-08T05:46:35;101120.0;;;6.4;63.1
28456;BME280;15682;56.742;38.866;2023-05-08T05:48:36;101120.0;;;6.6;61.5
28456;BME280;15682;56.742;38.866;2023-05-08T05:50:37;101120.0;;;6.6;62.2
28456;BME280;15682;56.742;38.866;2023-05-08T05:52:37;101120.0;;;6.6;61.5
28456;BME280;15682;56.742;38.866;2023-05-08T05:54:38;101130.0;;;6.7;61.5
28456;BME280;15682;56.742;38.866;2023-05-08T05:56:38;101130.0;;;6.7;61.5
28456;BME280;15682;56.742;38.866;2023-05-08T05:58:39;101130.0;;;6.8;60.1
28456;BME280;15682;56.742;38.866;2023-05-08T06:00:40;101130.0;;;6.8;60.1
28456;BME280;15682;56.742;38.866;2023-05-08T06:02:40;101130.0;;;7.0;58.4
28456;BME280;15682;56.742;38.866;2023-05-08T06:04:40;101130.0;;;7.0;58.4
28456;BME280;15682;56.742;38.866;2023-05-08T06:06:41;101130.0;;;7.1;58.6
28456;BME280;15682;56.742;38.866;2023-05-08T06:08:41;101130.0;;;7.2;57.2
28456;BME280;15682;56.742;38.866;2023-05-08T06:10:42;101130.0;;;7.3;56.4
28456;BME280;15682;56.742;38.866;2023-05-08T06:12:42;101130.0;;;7.4;56.4
28456;BME280;15682;56.742;38.866;2023-05-08T06:14:43;101130.0;;;7.4;56.3
28456;BME280;15682;56.742;38.866;2023-05-08T06:16:44;101130.0;;;7.5;56.7
28456;BME280;15682;56.742;38.866;2023-05-08T06:18:44;101130.0;;;7.6;55.2
28456;BME280;15682;56.742;38.866;2023-05-08T06:20:45;101140.0;;;7.6;57.0
28456;BME280;15682;56.742;38.866;2023-05-08T06:22:45;101140.0;;;7.8;55.5
28456;BME280;15682;56.742;38.866;2023-05-08T06:24:46;101140.0;;;7.9;54.4
28456;BME280;15682;56.742;38.866;2023-05-08T06:26:46;101140.0;;;7.9;53.3
28456;BME280;15682;56.742;38.866;2023-05-08T06:28:47;101140.0;;;7.9;54.3
28456;BME280;15682;56.742;38.866;2023-05-08T06:30:48;101140.0;;;8.0;54.3
28456;BME280;15682;56.742;38.866;2023-05-08T06:32:48;101140.0;;;8.0;53.6
28456;BME280;15682;56.742;38.866;2023-05-08T06:34:49;101140.0;;;8.0;53.5
28456;BME280;15682;56.742;38.866;2023-05-08T06:36:49;101140.0;;;8.0;53.5
28456;BME280;15682;56.742;38.866;2023-05-08T06:38:50;101140.0;;;8.1;53.1
28456;BME280;15682;56.742;38.866;2023-05-08T06:40:50;101140.0;;;8.1;53.7
28456;BME280;15682;56.742;38.866;2023-05-08T06:42:51;101140.0;;;8.1;52.3
28456;BME280;15682;56.742;38.866;2023-05-08T06:44:51;101140.0;;;8.4;52.5
28456;BME280;15682;56.742;38.866;2023-05-08T06:46:52;101140.0;;;8.6;51.5
28456;BME280;15682;56.742;38.866;2023-05-08T06:48:52;101140.0;;;8.7;50.8
28456;BME280;15682;56.742;38.866;2023-05-08T06:50:53;101140.0;;;8.7;50.8
28456;BME280;15682;56.742;38.866;2023-05-08T06:52:53;101130.0;;;9.1;49.8
28456;BME280;15682;56.742;38.866;2023-05-08T06:54:54;101130.0;;;9.2;48.6
28456;BME280;15682;56.742;38.866;2023-05-08T06:56:54;101130.0;;;9.4;48.4
28456;BME280;15682;56.742;38.866;2023-05-08T06:58:55;101130.0;;;9.5;47.4
28456;BME280;15682;56.742;38.866;2023-05-08T07:00:56;101130.0;;;9.5;48.2
28456;BME280;15682;56.742;38.866;2023-05-08T07:02:56;101130.0;;;9.5;48.2
28456;BME280;15682;56.742;38.866;2023-05-08T07:04:57;101130.0;;;9.5;48.3
28456;BME280;15682;56.742;38.866;2023-05-08T07:06:57;101130.0;;;9.5;48.3
28456;BME280;15682;56.742;38.866;2023-05-08T07:08:58;101130.0;;;9.5;48.8
28456;BME280;15682;56.742;38.866;2023-05-08T07:10:58;101120.0;;;9.5;46.8
28456;BME280;15682;56.742;38.866;2023-05-08T07:12:59;101120.0;;;9.8;46.8
28456;BME280;15682;56.742;38.866;2023-05-08T07:14:59;101100.0;;;10.2;44.8
28456;BME280;15682;56.742;38.866;2023-05-08T07:17:02;101100.0;;;10.2;44.8
28456;BME280;15682;56.742;38.866;2023-05-08T07:19:00;101110.0;;;10.2;43.8
28456;BME280;15682;56.742;38.866;2023-05-08T07:21:01;101110.0;;;10.6;42.5
28456;BME280;15682;56.742;38.866;2023-05-08T07:23:01;101110.0;;;10.9;42.7
28456;BME280;15682;56.742;38.866;2023-05-08T07:25:02;101110.0;;;11.4;41.2
28456;BME280;15682;56.742;38.866;2023-05-08T07:27:02;101110.0;;;11.3;43.2
28456;BME280;15682;56.742;38.866;2023-05-08T07:29:02;101110.0;;;11.5;41.6
28456;BME280;15682;56.742;38.866;2023-05-08T07:31:03;101110.0;;;11.4;41.6
28456;BME280;15682;56.742;38.866;2023-05-08T07:33:03;101100.0;;;11.7;40.4
28456;BME280;15682;56.742;38.866;2023-05-08T07:35:04;101100.0;;;11.5;41.0
28456;BME280;15682;56.742;38.866;2023-05-08T07:37:04;101100.0;;;10.8;42.3
28456;BME280;15682;56.742;38.866;2023-05-08T07:39:04;101100.0;;;10.4;43.5
28456;BME280;15682;56.742;38.866;2023-05-08T07:41:05;101100.0;;;10.6;44.0
28456;BME280;15682;56.742;38.866;2023-05-08T07:43:05;101100.0;;;10.6;45.5
28456;BME280;15682;56.742;38.866;2023-05-08T07:45:06;101100.0;;;10.6;46.9
28456;BME280;15682;56.742;38.866;2023-05-08T07:47:05;101100.0;;;10.4;45.1
28456;BME280;15682;56.742;38.866;2023-05-08T07:49:06;101100.0;;;10.6;45.1
28456;BME280;15682;56.742;38.866;2023-05-08T07:51:06;101100.0;;;10.9;44.3
28456;BME280;15682;56.742;38.866;2023-05-08T07:53:06;101100.0;;;11.1;44.3
28456;BME280;15682;56.742;38.866;2023-05-08T07:55:07;101110.0;;;11.3;43.6
28456;BME280;15682;56.742;38.866;2023-05-08T07:57:07;101110.0;;;12.0;42.9
28456;BME280;15682;56.742;38.866;2023-05-08T07:59:07;101110.0;;;12.3;40.8
28456;BME280;15682;56.742;38.866;2023-05-08T08:01:07;101110.0;;;11.9;36.6
28456;BME280;15682;56.742;38.866;2023-05-08T08:03:07;101110.0;;;12.2;36.6
28456;BME280;15682;56.742;38.866;2023-05-08T08:05:08;101110.0;;;12.2;34.4
28456;BME280;15682;56.742;38.866;2023-05-08T08:07:08;101110.0;;;12.3;35.2
28456;BME280;15682;56.742;38.866;2023-05-08T08:09:08;101110.0;;;11.7;35.2
28456;BME280;15682;56.742;38.866;2023-05-08T08:11:09;101110.0;;;11.0;36.3
28456;BME280;15682;56.742;38.866;2023-05-08T08:13:09;101110.0;;;10.7;38.2
28456;BME280;15682;56.742;38.866;2023-05-08T08:15:10;101110.0;;;10.9;37.8
28456;BME280;15682;56.742;38.866;2023-05-08T08:17:09;101110.0;;;11.3;36.1
28456;BME280;15682;56.742;38.866;2023-05-08T08:19:10;101110.0;;;11.8;35.6
28456;BME280;15682;56.742;38.866;2023-05-08T08:21:10;101110.0;;;11.6;34.0
28456;BME280;15682;56.742;38.866;2023-05-08T08:23:10;101110.0;;;12.2;33.1
28456;BME280;15682;56.742;38.866;2023-05-08T08:25:10;101110.0;;;12.3;32.9
28456;BME280;15682;56.742;38.866;2023-05-08T08:27:10;101110.0;;;12.6;35.0
28456;BME280;15682;56.742;38.866;2023-05-08T08:29:11;101110.0;;;13.2;35.2
28456;BME280;15682;56.742;38.866;2023-05-08T08:31:11;101110.0;;;13.6;33.3
28456;BME280;15682;56.742;38.866;2023-05-08T08:33:11;101110.0;;;13.0;33.8
28456;BME280;15682;56.742;38.866;2023-05-08T08:35:12;101110.0;;;12.3;36.4
28456;BME280;15682;56.742;38.866;2023-05-08T08:37:12;101110.0;;;11.8;36.3
28456;BME280;15682;56.742;38.866;2023-05-08T08:39:12;101110.0;;;12.2;37.1
28456;BME280;15682;56.742;38.866;2023-05-08T08:41:12;101110.0;;;11.3;37.1
28456;BME280;15682;56.742;38.866;2023-05-08T08:43:12;101110.0;;;11.8;37.6
28456;BME280;15682;56.742;38.866;2023-05-08T08:45:12;101110.0;;;11.7;36.8
28456;BME280;15682;56.742;38.866;2023-05-08T08:47:15;101110.0;;;12.1;36.4
28456;BME280;15682;56.742;38.866;2023-05-08T08:49:17;101110.0;;;12.3;36.2
28456;BME280;15682;56.742;38.866;2023-05-08T08:51:23;101110.0;;;11.9;37.4
28456;BME280;15682;56.742;38.866;2023-05-08T08:53:21;101110.0;;;11.9;36.4
28456;BME280;15682;56.742;38.866;2023-05-08T08:55:15;101110.0;;;12.2;37.3
28456;BME280;15682;56.742;38.866;2023-05-08T08:57:14;101110.0;;;12.4;36.5
28456;BME280;15682;56.742;38.866;2023-05-08T08:59:16;101110.0;;;12.6;36.4
28456;BME280;15682;56.742;38.866;2023-05-08T09:01:16;101110.0;;;12.6;35.8
28456;BME280;15682;56.742;38.866;2023-05-08T09:03:15;101110.0;;;13.0;35.2
28456;BME280;15682;56.742;38.866;2023-05-08T09:05:15;101110.0;;;13.2;34.2
28456;BME280;15682;56.742;38.866;2023-05-08T09:07:16;101110.0;;;12.8;34.9
28456;BME280;15682;56.742;38.866;2023-05-08T09:09:15;101100.0;;;12.8;34.9
28456;BME280;15682;56.742;38.866;2023-05-08T09:11:15;101100.0;;;12.9;35.7
28456;BME280;15682;56.742;38.866;2023-05-08T09:13:15;101100.0;;;13.3;35.7
28456;BME280;15682;56.742;38.866;2023-05-08T09:15:16;101100.0;;;13.1;35.7
28456;BME280;15682;56.742;38.866;2023-05-08T09:17:16;101100.0;;;12.6;36.9
28456;BME280;15682;56.742;38.866;2023-05-08T09:19:16;101100.0;;;12.4;38.8
28456;BME280;15682;56.742;38.866;2023-05-08T09:21:16;101100.0;;;12.0;38.2
28456;BME280;15682;56.742;38.866;2023-05-08T09:23:17;101100.0;;;11.9;39.3
28456;BME280;15682;56.742;38.866;2023-05-08T09:25:17;101100.0;;;12.5;37.3
28456;BME280;15682;56.742;38.866;2023-05-08T09:27:20;101100.0;;;13.1;36.0
28456;BME280;15682;56.742;38.866;2023-05-08T09:29:18;101100.0;;;12.4;37.3
28456;BME280;15682;56.742;38.866;2023-05-08T09:31:17;101100.0;;;12.2;36.4
28456;BME280;15682;56.742;38.866;2023-05-08T09:33:18;101100.0;;;12.4;36.4
28456;BME280;15682;56.742;38.866;2023-05-08T09:35:18;101100.0;;;12.3;38.0
28456;BME280;15682;56.742;38.866;2023-05-08T09:37:18;101100.0;;;12.5;35.7
28456;BME280;15682;56.742;38.866;2023-05-08T09:39:21;101100.0;;;12.5;35.7
28456;BME280;15682;56.742;38.866;2023-05-08T09:41:18;101090.0;;;12.3;37.8
28456;BME280;15682;56.742;38.866;2023-05-08T09:43:19;101100.0;;;12.2;38.7
28456;BME280;15682;56.742;38.866;2023-05-08T09:45:28;101100.0;;;12.5;37.3
28456;BME280;15682;56.742;38.866;2023-05-08T09:47:21;101100.0;;;12.5;38.0
28456;BME280;15682;56.742;38.866;2023-05-08T09:49:19;101100.0;;;12.3;36.4
28456;BME280;15682;56.742;38.866;2023-05-08T09:51:20;101100.0;;;12.3;37.4
28456;BME280;15682;56.742;38.866;2023-05-08T09:53:29;101090.0;;;12.0;38.4
28456;BME280;15682;56.742;38.866;2023-05-08T09:55:20;101090.0;;;12.2;37.3
28456;BME280;15682;56.742;38.866;2023-05-08T09:57:20;101090.0;;;12.2;37.0
28456;BME280;15682;56.742;38.866;2023-05-08T09:59:23;101090.0;;;12.1;37.0
28456;BME280;15682;56.742;38.866;2023-05-08T10:01:30;101090.0;;;12.2;38.1
28456;BME280;15682;56.742;38.866;2023-05-08T10:03:21;101090.0;;;12.7;39.1
28456;BME280;15682;56.742;38.866;2023-05-08T10:05:23;101090.0;;;12.7;38.0
28456;BME280;15682;56.742;38.866;2023-05-08T10:07:27;101090.0;;;12.3;38.7
28456;BME280;15682;56.742;38.866;2023-05-08T10:09:21;101090.0;;;11.8;37.6
28456;BME280;15682;56.742;38.866;2023-05-08T10:11:22;101090.0;;;11.7;38.7
28456;BME280;15682;56.742;38.866;2023-05-08T10:13:22;101090.0;;;12.2;38.0
28456;BME280;15682;56.742;38.866;2023-05-08T10:15:23;101090.0;;;12.6;39.1
28456;BME280;15682;56.742;38.866;2023-05-08T10:17:26;101090.0;;;12.7;37.6
28456;BME280;15682;56.742;38.866;2023-05-08T10:19:24;101080.0;;;12.5;39.4
28456;BME280;15682;56.742;38.866;2023-05-08T10:21:24;101080.0;;;12.0;40.2
28456;BME280;15682;56.742;38.866;2023-05-08T10:23:24;101080.0;;;11.8;41.0
28456;BME280;15682;56.742;38.866;2023-05-08T10:25:24;101080.0;;;11.9;41.0
28456;BME280;15682;56.742;38.866;2023-05-08T10:27:30;101080.0;;;11.5;39.3
28456;BME280;15682;56.742;38.866;2023-05-08T10:29:31;101080.0;;;11.4;41.2
28456;BME280;15682;56.742;38.866;2023-05-08T10:31:25;101080.0;;;11.5;39.6
28456;BME280;15682;56.742;38.866;2023-05-08T10:33:29;101080.0;;;11.8;38.9
28456;BME280;15682;56.742;38.866;2023-05-08T10:35:24;101080.0;;;11.6;40.2
28456;BME280;15682;56.742;38.866;2023-05-08T10:37:25;101080.0;;;11.6;40.6
28456;BME280;15682;56.742;38.866;2023-05-08T10:39:24;101080.0;;;12.0;39.8
28456;BME280;15682;56.742;38.866;2023-05-08T10:41:25;101080.0;;;12.0;40.3
28456;BME280;15682;56.742;38.866;2023-05-08T10:43:25;101070.0;;;12.3;39.4
28456;BME280;15682;56.742;38.866;2023-05-08T10:45:26;101060.0;;;12.9;37.7
28456;BME280;15682;56.742;38.866;2023-05-08T10:47:32;101050.0;;;13.5;37.5
28456;BME280;15682;56.742;38.866;2023-05-08T10:49:36;101050.0;;;13.7;38.5